10°C
Gosport, Hampshire, United Kingdom
Language:  English
Updated21/08/2019 06:00:00 
 

Nearby METAR Reports

 

EGHI - Southampton Wx Centre, United Kingdom
Distance from station: NW 15mi, 24km
Updated: 21-Aug-2019 05:50:00
Shallow fog, Partly cloudy
Shallow fog, Partly cloudy
 Wind from calm
Wind: Calm
Temperature: 8°C
Dew Point: 7°C
Humidity: 93%
Barometer: 1027 hPa
Summary: Shallow Fog
Clouds: Partly cloudy
Visibility: 6 miles , 10 km
2019/08/21 04:50 EGHI 210450Z 00000KT 9999 MIFG NSC 08/07 Q1027
EGHH - Bournemouth Airport, United Kingdom
Distance from station: W 30mi, 49km
Updated: 21-Aug-2019 05:50:00
Patches of fog, Partly cloudy
Patches of fog, Partly cloudy
 Wind from N
Wind: N 2 mph , 4 km/h
Temperature: 7°C
Dew Point: 7°C
Humidity: 100%
Barometer: 1027 hPa
Summary: Patches of Fog
Clouds: Partly cloudy
Visibility: 4 miles , 6 km
2019/08/21 04:50 EGHH 210450Z 01002KT 6000 0500NE BCFG NSC 07/07 Q1027
EGVP - Middle Wallop Airfield, United Kingdom
Distance from station: NW 31mi, 49km
Updated: 21-Aug-2019 04:50:00
Clear
Clear
 Wind from E
Wind: E 3 mph , 6 km/h
Temperature: 10°C
Dew Point: 9°C
Humidity: 94%
Barometer: 1027 hPa
Clouds: Clear
Visibility: 6 miles , 10 km
2019/08/21 03:50 EGVP 210350Z AUTO 09003KT 9999 // NCD 10/09 Q1027
 
EGVO - RAF Odiham, United Kingdom
Distance from station: NNE 32mi, 52km
Updated: 21-Aug-2019 05:50:00
Clear
Clear
 Wind from SSW
Wind: SSW 6 mph , 9 km/h
Temperature: 11°C
Dew Point: 10°C
Humidity: 94%
Barometer: 1027 hPa
Summary: Clear
Visibility: greater than 7 miles , 10 km
2019/08/21 04:50 EGVO 210450Z 21005KT CAVOK 11/10 Q1027 NOSIG RMK BLU BLU
EGKA - Shoreham Airport, United Kingdom
Distance from station: E 37mi, 59km
Updated: 20-Aug-2019 19:50:00
NOT Current
Clear
Clear
 Wind from WSW
Wind: WSW 15 mph , 24 km/h
Temperature: 17°C
Dew Point: 13°C
Humidity: 77%
Barometer: 1025 hPa
Summary: Clear
Visibility: greater than 7 miles , 10 km
2019/08/20 18:50 EGKA 201850Z 25013KT CAVOK 17/13 Q1025
EGDM - Boscombe Down, United Kingdom
Distance from station: NW 38mi, 61km
Updated: 21-Aug-2019 04:50:00
Clear
Clear
 Wind from SSW
Wind: SSW 2 mph , 4 km/h
Temperature: 10°C
Dew Point: 9°C
Humidity: 94%
Barometer: 1027 hPa
Clouds: Clear
Visibility: 6 miles , 10 km
2019/08/21 03:50 EGDM 210350Z AUTO 20002KT 9999 NCD 10/09 Q1027
 
EGLF - Farnborough, United Kingdom
Distance from station: NNE 38mi, 61km
Updated: 21-Aug-2019 05:50:00
Clear
Clear
 Wind from SSW
Wind: SSW 1 mph , 2 km/h
Temperature: 8°C
Dew Point: 7°C
Humidity: 93%
Barometer: 1027 hPa
Clouds: Clear
Visibility: 6 miles , 10 km
2019/08/21 04:50 EGLF 210450Z AUTO 21001KT 9999 NCD 08/07 Q1027
EGKK - Gatwick Airport, United Kingdom
Distance from station: ENE 49mi, 78km
Updated: 21-Aug-2019 05:50:00
Clear
Clear
 Wind from SW
Wind: SW 1 mph , 2 km/h
Temperature: 9°C
Dew Point: 8°C
Humidity: 94%
Barometer: 1027 hPa
Summary: Clear
Visibility: greater than 7 miles , 10 km
2019/08/21 04:50 EGKK 210450Z 23001KT CAVOK 09/08 Q1027
EGLL - Heathrow Airport, United Kingdom
Distance from station: NNE 57mi, 91km
Updated: 21-Aug-2019 05:50:00
Clear
Clear
 Wind from S
Wind: S 5 mph , 7 km/h
Temperature: 11°C
Dew Point: 9°C
Humidity: 88%
Barometer: 1027 hPa
Clouds: Clear
Visibility: 6 miles , 10 km
2019/08/21 04:50 EGLL 210450Z AUTO 18004KT 160V240 9999 NCD 11/09 Q1027 NOSIG
 
EGUB - RAF Benson, United Kingdom
Distance from station: N 58mi, 93km
Updated: 21-Aug-2019 04:50:00
Clear
Clear
 Wind from SSE
Wind: SSE 6 mph , 9 km/h
Temperature: 10°C
Wind Chill: 9°C
Dew Point: 9°C
Humidity: 94%
Barometer: 1026 hPa
Clouds: Clear
Visibility: 6 miles , 10 km
2019/08/21 03:50 EGUB 210350Z AUTO 16005KT 9999 // NCD 10/09 Q1026
EGWU - RAF Northolt, United Kingdom
Distance from station: NNE 62mi, 99km
Updated: 21-Aug-2019 04:50:00
Clear
Clear
 Wind from WSW
Wind: WSW 1 mph , 2 km/h
Temperature: 9°C
Dew Point: 8°C
Humidity: 94%
Barometer: 1027 hPa
Clouds: Clear
Visibility: 6 miles , 10 km
2019/08/21 03:50 EGWU 210350Z AUTO 25001KT 9999 // NCD 09/08 Q1027
EGKB - Biggin Hill Airport, United Kingdom
Distance from station: NE 62mi, 100km
Updated: 20-Aug-2019 22:20:00
NOT Current
Clear
Clear
 Wind from SW
Wind: SW 6 mph , 9 km/h
Temperature: 13°C
Dew Point: 7°C
Humidity: 67%
Barometer: 1027 hPa
Summary: Clear
Visibility: greater than 7 miles , 10 km
2019/08/20 21:20 EGKB 202120Z 23005KT CAVOK 13/07 Q1027
 
EGDY - RNAS Yeovilton, United Kingdom
Distance from station: WNW 66mi, 107km
Updated: 21-Aug-2019 04:50:00
Clear
Clear
 Wind from ENE
Wind: ENE 1 mph , 2 km/h
Temperature: 10°C
Dew Point: 9°C
Humidity: 94%
Barometer: 1027 hPa
Clouds: Clear
Visibility: 6 miles , 10 km
2019/08/21 03:50 EGDY 210350Z AUTO 07001KT 9999 NCD 10/09 Q1027
EGUO - Colerne Airfield, United Kingdom
Distance from station: NW 67mi, 108km
Updated: 14-Feb-2019 22:50:00
NOT Current
Clear
Clear
 Wind from ENE
Wind: ENE 1 mph , 2 km/h
Temperature: 1°C
Dew Point: 0°C
Humidity: 93%
Barometer: 1029 hPa
Summary: Clear
Visibility: greater than 7 miles , 10 km
2019/02/14 22:50 EGUO 142250Z 06001KT CAVOK 01/00 Q1029 BLU NOSIG
EGVA - RAF Fairford, United Kingdom
Distance from station: NNW 67mi, 108km
Updated: 21-Aug-2019 05:56:00
Clear
Clear
 Wind from calm
Wind: Calm
Temperature: 10°C
Dew Point: 9°C
Humidity: 94%
Barometer: 1026.4 hPa
Clouds: Clear
Visibility: 6 miles , 10 km
2019/08/21 04:56 EGVA 210456Z AUTO 00000KT 9999 CLR 10/09 A3031 RMK AO2 SLP267 T01000094 $
 
EGVN - RAF Brize Norton, United Kingdom
Distance from station: NNW 71mi, 114km
Updated: 21-Aug-2019 05:50:00
Shallow fog, Few clouds
Shallow fog, Few clouds
 Wind from W
Wind: W 1 mph , 2 km/h
Temperature: 10°C
Dew Point: 9°C
Humidity: 94%
Barometer: 1026 hPa
Summary: Shallow Fog
Clouds: Few Clouds
Visibility: 6 miles , 10 km
Cloud details: Few Clouds 1219 m
2019/08/21 04:50 EGVN 210450Z 27001KT 9999 MIFG FEW040 10/09 Q1026 TEMPO 7000 BR RMK BLU TEMPO WHT
EGLC - London City Airport, United Kingdom
Distance from station: NE 71mi, 115km
Updated: 21-Aug-2019 05:50:00
Clear
Clear
 Wind from SSW
Wind: SSW 6 mph , 9 km/h
Temperature: 14°C
Dew Point: 10°C
Humidity: 77%
Barometer: 1027 hPa
Clouds: Clear
Visibility: 6 miles , 10 km
2019/08/21 04:50 EGLC 210450Z AUTO 21005KT 9999 NCD 14/10 Q1027
EGGD - Bristol Airport, United Kingdom
Distance from station: WNW 80mi, 128km
Updated: 21-Aug-2019 05:50:00
Clear
Clear
 Wind from SSW
Wind: SSW 5 mph , 7 km/h
Temperature: 12°C
Dew Point: 11°C
Humidity: 94%
Barometer: 1027 hPa
Clouds: Clear
Visibility: 6 miles , 10 km
2019/08/21 04:50 EGGD 210450Z AUTO 20004KT 9999 NCD 12/11 Q1027
 
LFRC - Cherbourg-Maupertus Airport, France
Distance from station: S 81mi, 130km
Updated: 21-Aug-2019 05:30:00
Partly cloudy
Partly cloudy
 Wind from SSW
Wind: SSW 6 mph , 9 km/h
Temperature: 9°C
Wind Chill: 7°C
Dew Point: 9°C
Humidity: 100%
Barometer: 1028 hPa
Clouds: Partly cloudy
Visibility: 5 miles , 8 km
2019/08/21 04:30 LFRC 210430Z AUTO 20005KT 8000 NSC 09/09 Q1028
EGGW - Luton Airport, United Kingdom
Distance from station: NNE 82mi, 132km
Updated: 21-Aug-2019 05:50:00
Clear
Clear
 Wind from SSW
Wind: SSW 7 mph , 11 km/h
Temperature: 11°C
Dew Point: 10°C
Humidity: 94%
Barometer: 1026 hPa
Clouds: Clear
Visibility: 6 miles , 10 km
2019/08/21 04:50 EGGW 210450Z AUTO 21006KT 9999 NCD 11/10 Q1026